Time;durP1;ratioP1;P1;durP2;ratioP2;P2;SDS_P1;SDS_P2;PMS_P1;PMS_P2;Temp;Humidity;BMP_temperature;BMP_pressure;BME280_temperature;BME280_humidity;BME280_pressure;Samples;Min_cycle;Max_cycle;Signal;HPM_P1;HPM_P2
2022/05/15 00:01:33;;;;;;;;;;;12.10;99.90;;;;;;5072288;28;19998;-72
2022/05/15 00:03:59;;;;;;;;;;;12.00;99.90;;;;;;5070376;28;19946;-72
2022/05/15 00:06:25;;;;;;;;;;;12.00;99.90;;;;;;5072184;28;19913;-72
2022/05/15 00:08:51;;;;;;;;;;;12.00;99.90;;;;;;5072161;28;19920;-72
2022/05/15 00:11:22;;;;;;;;;;;11.90;99.90;;;;;;5071614;28;19916;-72
2022/05/15 00:13:48;;;;;;;;;;;11.90;99.90;;;;;;5071302;28;19920;-71
2022/05/15 00:16:13;;;;;;;;;;;11.90;99.90;;;;;;5070222;28;19941;-71
2022/05/15 00:18:39;;;;;;;;;;;11.90;99.90;;;;;;5071465;28;20090;-72
2022/05/15 00:21:06;;;;;;;;;;;11.90;99.90;;;;;;5071364;28;20374;-72
2022/05/15 00:23:31;;;;;;;;;;;11.80;99.90;;;;;;5069914;28;20395;-72
2022/05/15 00:25:58;;;;;;;;;;;11.80;99.90;;;;;;5071430;28;19909;-71
2022/05/15 00:28:23;;;;;;;;;;;11.90;99.90;;;;;;5071269;28;19917;-71
2022/05/15 00:30:49;;;;;;;;;;;11.80;99.90;;;;;;5071236;28;19916;-71
2022/05/15 00:33:15;;;;;;;;;;;11.80;99.90;;;;;;5071346;28;19912;-71
2022/05/15 00:35:41;;;;;;;;;;;11.80;99.90;;;;;;5071333;28;19991;-71
2022/05/15 00:38:07;;;;;;;;;;;11.80;99.90;;;;;;5070274;28;19954;-72
2022/05/15 00:40:34;;;;;;;;;;;11.80;99.90;;;;;;5071247;28;19916;-72
2022/05/15 00:43:00;;;;;;;;;;;12.30;99.90;;;;;;5071369;28;19965;-72
2022/05/15 00:45:25;;;;;;;;;;;11.70;99.90;;;;;;5071291;28;19908;-72
2022/05/15 00:47:51;;;;;;;;;;;11.70;99.90;;;;;;5071669;28;19916;-72
2022/05/15 00:50:19;;;;;;;;;;;11.70;99.90;;;;;;5071551;28;20267;-71
2022/05/15 00:52:47;;;;;;;;;;;11.70;99.90;;;;;;5071163;28;19908;-72
2022/05/15 00:55:16;;;;;;;;;;;11.60;99.90;;;;;;5071387;28;19916;-72
2022/05/15 00:57:47;;;;;;;;;;;11.60;99.90;;;;;;5071116;28;19908;-72
2022/05/15 01:00:15;;;;;;;;;;;11.60;99.90;;;;;;5070783;28;19916;-72
2022/05/15 01:02:42;;;;;;;;;;;11.50;99.90;;;;;;5072419;28;19912;-72
2022/05/15 01:05:09;;;;;;;;;;;11.50;99.90;;;;;;5075506;28;19928;-71
2022/05/15 01:07:34;;;;;;;;;;;11.50;99.90;;;;;;5075354;28;19916;-72
2022/05/15 01:10:00;;;;;;;;;;;11.40;99.90;;;;;;5075427;28;19920;-72
2022/05/15 01:12:27;;;;;;;;;;;11.40;99.90;;;;;;5073716;28;20003;-72
2022/05/15 01:14:53;;;;;;;;;;;11.40;99.90;;;;;;5075218;28;19923;-72
2022/05/15 01:17:18;;;;;;;;;;;11.40;99.90;;;;;;5075283;28;20352;-72
2022/05/15 01:19:44;;;;;;;;;;;11.40;99.90;;;;;;5074947;28;20396;-72
2022/05/15 01:22:11;;;;;;;;;;;11.30;99.90;;;;;;5075208;28;19987;-72
2022/05/15 01:24:37;;;;;;;;;;;11.20;99.90;;;;;;5075096;28;20340;-72
2022/05/15 01:27:05;;;;;;;;;;;11.40;99.90;;;;;;5073323;28;19915;-72
2022/05/15 01:29:32;;;;;;;;;;;11.30;99.90;;;;;;5074803;28;20021;-72
2022/05/15 01:31:58;;;;;;;;;;;11.30;99.90;;;;;;5074811;28;19951;-72
2022/05/15 01:34:24;;;;;;;;;;;11.30;99.90;;;;;;5074630;28;19919;-72
2022/05/15 01:36:50;;;;;;;;;;;11.30;99.90;;;;;;5074597;28;19928;-72
2022/05/15 01:39:16;;;;;;;;;;;11.30;99.90;;;;;;5074554;28;20370;-72
2022/05/15 01:41:41;;;;;;;;;;;11.30;99.90;;;;;;5074623;28;19975;-72
2022/05/15 01:44:07;;;;;;;;;;;11.20;99.90;;;;;;5074534;28;19955;-72
2022/05/15 01:46:32;;;;;;;;;;;11.30;99.90;;;;;;5074467;28;19913;-72
2022/05/15 01:48:59;;;;;;;;;;;11.20;99.90;;;;;;5074367;28;19917;-72
2022/05/15 01:51:25;;;;;;;;;;;11.20;99.90;;;;;;5074323;28;19959;-72
2022/05/15 01:53:50;;;;;;;;;;;11.30;99.90;;;;;;5074372;28;19982;-72
2022/05/15 01:56:16;;;;;;;;;;;11.10;99.90;;;;;;5074514;28;19908;-73
2022/05/15 01:58:41;;;;;;;;;;;11.20;99.90;;;;;;5074267;28;19924;-72
2022/05/15 02:01:07;;;;;;;;;;;11.20;99.90;;;;;;5073906;28;20003;-72
2022/05/15 02:03:34;;;;;;;;;;;11.20;99.90;;;;;;5074125;28;20292;-72
2022/05/15 02:05:59;;;;;;;;;;;11.20;99.90;;;;;;5072605;28;20367;-72
2022/05/15 02:08:25;;;;;;;;;;;11.20;99.90;;;;;;5072584;28;20008;-72
2022/05/15 02:10:51;;;;;;;;;;;11.20;99.90;;;;;;5073822;28;20047;-72
2022/05/15 02:13:16;;;;;;;;;;;11.20;99.90;;;;;;5073707;28;19915;-72
2022/05/15 02:15:42;;;;;;;;;;;11.20;99.90;;;;;;5073782;28;19970;-72
2022/05/15 02:18:07;;;;;;;;;;;11.10;99.90;;;;;;5073750;28;19909;-72
2022/05/15 02:20:33;;;;;;;;;;;11.10;99.90;;;;;;5073747;28;19977;-72
2022/05/15 02:22:59;;;;;;;;;;;11.10;99.90;;;;;;5073938;28;20003;-72
2022/05/15 02:25:31;;;;;;;;;;;11.00;99.90;;;;;;5073176;28;20150;-72
2022/05/15 02:27:57;;;;;;;;;;;11.00;99.90;;;;;;5073881;28;19909;-72
2022/05/15 02:30:23;;;;;;;;;;;11.00;99.90;;;;;;5073363;28;19921;-71
2022/05/15 02:32:49;;;;;;;;;;;10.90;99.90;;;;;;5073761;28;19912;-72
2022/05/15 02:35:15;;;;;;;;;;;10.90;99.90;;;;;;5073755;28;19931;-72
2022/05/15 02:37:44;;;;;;;;;;;10.90;99.90;;;;;;5073592;28;19919;-72
2022/05/15 02:40:12;;;;;;;;;;;10.80;99.90;;;;;;5073396;28;19920;-72
2022/05/15 02:42:38;;;;;;;;;;;10.80;99.90;;;;;;5073500;28;19919;-72
2022/05/15 02:45:04;;;;;;;;;;;10.90;99.90;;;;;;5073636;28;19913;-72
2022/05/15 02:47:30;;;;;;;;;;;10.90;99.90;;;;;;5073298;28;19995;-72
2022/05/15 02:52:39;;;;;;;;;;;10.90;99.90;;;;;;5073658;28;19989;-71
2022/05/15 02:55:05;;;;;;;;;;;10.90;99.90;;;;;;5073560;28;20315;-72
2022/05/15 02:57:31;;;;;;;;;;;10.90;99.90;;;;;;5073520;28;19913;-71
2022/05/15 02:59:56;;;;;;;;;;;10.90;99.90;;;;;;5073219;28;19920;-72
2022/05/15 03:02:22;;;;;;;;;;;10.90;99.90;;;;;;5073082;28;19959;-72
2022/05/15 03:04:49;;;;;;;;;;;10.90;99.90;;;;;;5073155;28;20276;-72
2022/05/15 03:07:15;;;;;;;;;;;10.90;99.90;;;;;;5073065;28;20353;-71
2022/05/15 03:09:40;;;;;;;;;;;10.90;99.90;;;;;;5073130;28;19988;-71
2022/05/15 03:12:06;;;;;;;;;;;10.90;99.90;;;;;;5072941;28;20316;-72
2022/05/15 03:14:32;;;;;;;;;;;10.80;99.90;;;;;;5073058;28;19920;-72
2022/05/15 03:16:58;;;;;;;;;;;10.80;99.90;;;;;;5072800;28;20320;-72
2022/05/15 03:19:24;;;;;;;;;;;10.80;99.90;;;;;;5072710;28;19957;-72
2022/05/15 03:21:49;;;;;;;;;;;10.80;99.90;;;;;;5072666;28;20012;-72
2022/05/15 03:24:15;;;;;;;;;;;10.80;99.90;;;;;;5072823;28;19920;-72
2022/05/15 03:26:42;;;;;;;;;;;10.80;99.90;;;;;;5072117;28;20401;-72
2022/05/15 03:29:08;;;;;;;;;;;10.90;99.90;;;;;;5071032;28;19935;-72
2022/05/15 03:31:35;;;;;;;;;;;10.80;99.90;;;;;;5071105;28;20003;-72
2022/05/15 03:34:02;;;;;;;;;;;10.80;99.90;;;;;;5072222;28;19962;-72
2022/05/15 03:36:28;;;;;;;;;;;10.80;99.90;;;;;;5072309;28;19970;-72
2022/05/15 03:38:53;;;;;;;;;;;10.80;99.90;;;;;;5072406;28;19908;-72
2022/05/15 03:41:19;;;;;;;;;;;10.80;99.90;;;;;;5072326;28;19964;-72
2022/05/15 03:43:44;;;;;;;;;;;10.80;99.90;;;;;;5072304;28;19915;-72
2022/05/15 03:46:10;;;;;;;;;;;10.90;99.90;;;;;;5072157;28;20279;-72
2022/05/15 03:48:36;;;;;;;;;;;11.20;99.90;;;;;;5072337;28;19958;-72
2022/05/15 03:51:02;;;;;;;;;;;10.90;99.90;;;;;;5072123;28;20019;-72
2022/05/15 03:53:29;;;;;;;;;;;10.90;99.90;;;;;;5072249;28;20401;-72
2022/05/15 03:55:58;;;;;;;;;;;10.90;99.90;;;;;;5071989;28;19924;-72
2022/05/15 03:58:27;;;;;;;;;;;10.90;99.90;;;;;;5070483;28;19915;-72
2022/05/15 04:00:53;;;;;;;;;;;10.90;99.90;;;;;;5071881;28;20619;-72
2022/05/15 04:03:18;;;;;;;;;;;10.90;99.90;;;;;;5070666;28;19975;-72
2022/05/15 04:05:44;;;;;;;;;;;11.00;99.90;;;;;;5072329;28;19916;-72
2022/05/15 04:08:10;;;;;;;;;;;11.00;99.90;;;;;;5071800;28;19923;-72
2022/05/15 04:10:36;;;;;;;;;;;10.90;99.90;;;;;;5070320;28;19927;-72
2022/05/15 04:13:01;;;;;;;;;;;10.90;99.90;;;;;;5071599;28;19932;-72
2022/05/15 04:15:27;;;;;;;;;;;11.00;99.90;;;;;;5071737;28;20217;-72
2022/05/15 04:17:52;;;;;;;;;;;10.90;99.90;;;;;;5071700;28;19908;-72
2022/05/15 04:20:20;;;;;;;;;;;11.00;99.90;;;;;;5070117;28;19928;-72
2022/05/15 04:22:45;;;;;;;;;;;11.00;99.90;;;;;;5070244;28;20376;-72
2022/05/15 04:25:12;;;;;;;;;;;10.90;99.90;;;;;;5071844;28;19923;-72
2022/05/15 04:27:38;;;;;;;;;;;11.00;99.90;;;;;;5071760;28;19954;-72
2022/05/15 04:30:03;;;;;;;;;;;11.10;99.90;;;;;;5071579;28;20505;-72
2022/05/15 04:32:29;;;;;;;;;;;11.10;99.90;;;;;;5071417;28;19920;-72
2022/05/15 04:34:55;;;;;;;;;;;11.30;99.90;;;;;;5071188;28;19916;-72
2022/05/15 04:37:20;;;;;;;;;;;11.20;99.90;;;;;;5069421;28;20007;-72
2022/05/15 04:39:46;;;;;;;;;;;11.20;99.90;;;;;;5071553;28;20348;-72
2022/05/15 04:42:11;;;;;;;;;;;11.30;99.90;;;;;;5071330;28;19960;-72
2022/05/15 04:44:36;;;;;;;;;;;11.30;99.90;;;;;;5070112;28;19913;-72
2022/05/15 04:47:02;;;;;;;;;;;11.40;99.90;;;;;;5071417;28;19961;-72
2022/05/15 04:49:28;;;;;;;;;;;11.40;99.90;;;;;;5071484;28;19919;-72
2022/05/15 04:51:53;;;;;;;;;;;11.40;99.90;;;;;;5071331;28;19917;-72
2022/05/15 04:54:18;;;;;;;;;;;11.50;99.90;;;;;;5071347;28;19920;-73
2022/05/15 04:56:44;;;;;;;;;;;11.50;99.90;;;;;;5071283;28;19986;-72
2022/05/15 04:59:09;;;;;;;;;;;11.50;99.90;;;;;;5071060;28;20178;-72
2022/05/15 05:01:35;;;;;;;;;;;11.60;99.90;;;;;;5070967;28;19912;-73
2022/05/15 05:04:01;;;;;;;;;;;11.60;99.90;;;;;;5070953;28;19919;-72
2022/05/15 05:06:27;;;;;;;;;;;11.60;99.90;;;;;;5071056;28;19983;-73
2022/05/15 05:08:52;;;;;;;;;;;11.60;99.90;;;;;;5071167;28;19916;-71
2022/05/15 05:11:18;;;;;;;;;;;11.60;99.90;;;;;;5070982;28;19928;-71
2022/05/15 05:13:43;;;;;;;;;;;11.60;99.90;;;;;;5070925;28;20418;-71
2022/05/15 05:16:09;;;;;;;;;;;11.80;99.90;;;;;;5069664;28;19917;-71
2022/05/15 05:18:34;;;;;;;;;;;11.90;99.90;;;;;;5070863;28;19919;-71
2022/05/15 05:21:00;;;;;;;;;;;12.00;99.90;;;;;;5070704;28;19929;-71
2022/05/15 05:23:25;;;;;;;;;;;12.10;99.90;;;;;;5070892;28;19985;-71
2022/05/15 05:25:51;;;;;;;;;;;12.20;99.90;;;;;;5069429;28;20386;-71
2022/05/15 05:28:16;;;;;;;;;;;12.30;99.90;;;;;;5070631;28;19914;-71
2022/05/15 05:30:42;;;;;;;;;;;12.30;99.90;;;;;;5070638;28;19924;-71
2022/05/15 05:33:08;;;;;;;;;;;12.40;99.90;;;;;;5070622;28;19909;-71
2022/05/15 05:35:35;;;;;;;;;;;12.50;99.90;;;;;;5070641;28;19920;-71
2022/05/15 05:38:00;;;;;;;;;;;12.50;99.90;;;;;;5070643;28;19913;-71
2022/05/15 05:40:26;;;;;;;;;;;12.60;99.90;;;;;;5070551;28;19919;-71
2022/05/15 05:42:51;;;;;;;;;;;12.70;99.90;;;;;;5070795;28;19908;-71
2022/05/15 05:45:17;;;;;;;;;;;12.70;99.90;;;;;;5070989;28;20379;-72
2022/05/15 05:47:44;;;;;;;;;;;12.80;99.90;;;;;;5070733;28;19994;-72
2022/05/15 05:50:10;;;;;;;;;;;12.80;99.90;;;;;;5074237;28;19920;-71
2022/05/15 05:52:41;;;;;;;;;;;12.80;99.90;;;;;;5074317;28;19912;-71
2022/05/15 05:55:10;;;;;;;;;;;12.80;99.90;;;;;;5074523;28;19913;-72
2022/05/15 05:57:36;;;;;;;;;;;12.90;99.90;;;;;;5072897;28;19923;-72
2022/05/15 06:00:03;;;;;;;;;;;13.00;99.90;;;;;;5072607;28;19935;-72
2022/05/15 06:02:28;;;;;;;;;;;13.00;99.90;;;;;;5074257;28;19956;-72
2022/05/15 06:04:54;;;;;;;;;;;13.10;99.90;;;;;;5074362;28;20383;-72
2022/05/15 06:07:21;;;;;;;;;;;13.10;99.90;;;;;;5074091;28;19912;-72
2022/05/15 06:09:47;;;;;;;;;;;13.10;99.90;;;;;;5074262;28;20005;-72
2022/05/15 06:12:14;;;;;;;;;;;13.00;99.90;;;;;;5073938;28;19917;-72
2022/05/15 06:14:39;;;;;;;;;;;12.90;99.90;;;;;;5074189;28;19912;-72
2022/05/15 06:17:05;;;;;;;;;;;12.80;99.90;;;;;;5073817;28;19923;-72
2022/05/15 06:19:31;;;;;;;;;;;12.80;99.90;;;;;;5074586;28;19960;-72
2022/05/15 06:21:57;;;;;;;;;;;12.70;99.90;;;;;;5073698;28;20373;-72
2022/05/15 06:24:22;;;;;;;;;;;12.70;99.90;;;;;;5072335;28;19999;-71
2022/05/15 06:26:48;;;;;;;;;;;12.90;99.90;;;;;;5073900;28;20003;-72
2022/05/15 06:29:14;;;;;;;;;;;12.70;99.90;;;;;;5073858;28;20426;-72
2022/05/15 06:31:39;;;;;;;;;;;12.80;99.90;;;;;;5073536;28;19970;-72
2022/05/15 06:34:05;;;;;;;;;;;12.90;99.90;;;;;;5073787;28;19916;-72
2022/05/15 06:36:31;;;;;;;;;;;13.00;99.90;;;;;;5073872;28;20394;-72
2022/05/15 06:38:56;;;;;;;;;;;13.10;99.90;;;;;;5072207;28;20024;-73
2022/05/15 06:41:22;;;;;;;;;;;13.10;99.90;;;;;;5073380;28;19919;-72
2022/05/15 06:43:48;;;;;;;;;;;13.20;99.90;;;;;;5071990;28;19970;-73
2022/05/15 06:46:14;;;;;;;;;;;13.30;99.90;;;;;;5073530;28;19920;-73
2022/05/15 06:48:40;;;;;;;;;;;13.20;99.90;;;;;;5073463;28;19974;-72
2022/05/15 06:51:06;;;;;;;;;;;13.10;99.90;;;;;;5073212;28;20376;-72
2022/05/15 06:53:32;;;;;;;;;;;13.10;99.90;;;;;;5073216;28;20397;-72
2022/05/15 06:58:41;;;;;;;;;;;13.20;99.90;;;;;;5073111;28;19996;-72
2022/05/15 07:01:07;;;;;;;;;;;13.30;99.90;;;;;;5072071;28;20318;-72
2022/05/15 07:03:33;;;;;;;;;;;13.40;99.90;;;;;;5073021;28;19916;-72
2022/05/15 07:05:58;;;;;;;;;;;13.50;99.90;;;;;;5073014;28;19939;-72
2022/05/15 07:08:24;;;;;;;;;;;13.60;99.90;;;;;;5073024;28;19952;-72
2022/05/15 07:10:49;;;;;;;;;;;13.70;99.90;;;;;;5071531;28;19916;-72
2022/05/15 07:13:15;;;;;;;;;;;13.70;99.90;;;;;;5072782;28;19942;-72
2022/05/15 07:15:40;;;;;;;;;;;13.90;99.90;;;;;;5071418;28;20152;-72
2022/05/15 07:18:06;;;;;;;;;;;14.30;99.90;;;;;;5073202;28;19909;-73
2022/05/15 07:20:32;;;;;;;;;;;14.60;99.90;;;;;;5072486;28;19928;-72
2022/05/15 07:22:58;;;;;;;;;;;14.80;99.90;;;;;;5072850;28;19981;-72
2022/05/15 07:25:23;;;;;;;;;;;15.10;99.90;;;;;;5072441;28;20513;-72
2022/05/15 07:27:49;;;;;;;;;;;15.30;99.90;;;;;;5071246;28;19916;-72
2022/05/15 07:30:15;;;;;;;;;;;15.30;99.90;;;;;;5071180;28;20253;-72
2022/05/15 07:32:40;;;;;;;;;;;15.20;99.90;;;;;;5072536;28;19943;-72
2022/05/15 07:35:06;;;;;;;;;;;15.30;99.90;;;;;;5072770;28;19913;-73
2022/05/15 07:37:31;;;;;;;;;;;15.40;99.90;;;;;;5072457;28;20344;-73
2022/05/15 07:39:57;;;;;;;;;;;15.50;99.90;;;;;;5072788;28;19932;-73
2022/05/15 07:42:22;;;;;;;;;;;15.50;99.90;;;;;;5072007;28;20249;-73
2022/05/15 07:44:48;;;;;;;;;;;15.60;99.90;;;;;;5072370;28;19959;-73
2022/05/15 07:47:13;;;;;;;;;;;15.90;99.90;;;;;;5072430;28;20340;-72
2022/05/15 07:49:40;;;;;;;;;;;16.30;99.90;;;;;;5070899;28;19913;-72
2022/05/15 07:52:06;;;;;;;;;;;16.40;99.90;;;;;;5071940;28;19974;-72
2022/05/15 07:54:33;;;;;;;;;;;16.50;99.90;;;;;;5071790;28;20255;-72
2022/05/15 07:56:59;;;;;;;;;;;16.70;99.90;;;;;;5071972;28;19919;-73
2022/05/15 07:59:24;;;;;;;;;;;17.00;99.90;;;;;;5072067;28;19995;-72
2022/05/15 08:01:50;;;;;;;;;;;16.90;99.90;;;;;;5071784;28;19913;-73
2022/05/15 08:04:18;;;;;;;;;;;16.80;99.90;;;;;;5071890;28;19919;-73
2022/05/15 08:09:27;;;;;;;;;;;16.90;99.90;;;;;;5072066;28;19919;-71
2022/05/15 08:11:53;;;;;;;;;;;16.90;99.90;;;;;;5070230;28;19917;-73
2022/05/15 08:14:20;;;;;;;;;;;17.00;99.90;;;;;;5071909;28;19924;-71
2022/05/15 08:16:46;;;;;;;;;;;16.90;99.90;;;;;;5071390;28;19919;-71
2022/05/15 08:24:40;;;;;;;;;;;16.60;99.90;;;;;;5071847;28;19959;-72
2022/05/15 08:27:06;;;;;;;;;;;16.50;99.90;;;;;;5071404;28;19948;-71
2022/05/15 08:29:31;;;;;;;;;;;16.40;99.90;;;;;;5071584;28;19920;-72
2022/05/15 08:31:57;;;;;;;;;;;15.60;99.90;;;;;;5069899;28;19916;-71
2022/05/15 08:34:22;;;;;;;;;;;16.20;99.90;;;;;;5071087;28;20429;-72
2022/05/15 08:36:49;;;;;;;;;;;16.40;99.90;;;;;;5071690;28;19932;-72
2022/05/15 08:39:15;;;;;;;;;;;16.90;99.90;;;;;;5069741;28;20334;-71
2022/05/15 08:41:41;;;;;;;;;;;17.40;99.90;;;;;;5071138;28;19916;-72
2022/05/15 08:44:33;;;;;;;;;;;17.60;99.90;;;;;;5069882;28;19919;-71
2022/05/15 08:47:05;;;;;;;;;;;17.40;99.90;;;;;;5069791;28;19912;-72
2022/05/15 08:49:36;;;;;;;;;;;17.10;99.90;;;;;;5071528;28;20260;-71
2022/05/15 08:52:07;;;;;;;;;;;17.00;99.90;;;;;;5070933;28;20269;-71
2022/05/15 08:54:34;;;;;;;;;;;16.80;99.90;;;;;;5071023;28;19912;-72
2022/05/15 08:57:00;;;;;;;;;;;16.60;99.90;;;;;;5070942;28;19920;-73
2022/05/15 08:59:27;;;;;;;;;;;16.60;99.90;;;;;;5069499;28;19912;-71
2022/05/15 09:01:54;;;;;;;;;;;16.40;99.90;;;;;;5070819;28;20006;-72
2022/05/15 09:04:20;;;;;;;;;;;16.40;99.90;;;;;;5070764;28;19925;-71
2022/05/15 09:06:48;;;;;;;;;;;16.50;99.90;;;;;;5070707;28;19913;-71
2022/05/15 09:09:13;;;;;;;;;;;16.50;99.90;;;;;;5070881;28;19934;-71
2022/05/15 09:11:57;;;;;;;;;;;16.60;99.90;;;;;;5070546;28;19916;-71
2022/05/15 09:14:23;;;;;;;;;;;16.70;99.90;;;;;;5070745;28;19912;-72
2022/05/15 09:17:04;;;;;;;;;;;16.60;99.90;;;;;;5070897;28;19920;-72
2022/05/15 09:19:29;;;;;;;;;;;16.50;99.90;;;;;;5071143;28;19963;-72
2022/05/15 09:21:57;;;;;;;;;;;16.80;99.90;;;;;;5071025;28;20023;-72
2022/05/15 09:24:41;;;;;;;;;;;17.30;99.90;;;;;;5073500;28;20374;-72
2022/05/15 09:27:11;;;;;;;;;;;17.70;99.90;;;;;;5074881;28;19912;-71
2022/05/15 09:29:36;;;;;;;;;;;18.20;99.10;;;;;;5075107;28;20378;-71
2022/05/15 09:32:05;;;;;;;;;;;18.50;98.80;;;;;;5074639;28;19917;-72
2022/05/15 09:34:33;;;;;;;;;;;18.70;97.90;;;;;;5074438;28;19916;-72
2022/05/15 09:39:45;;;;;;;;;;;18.00;98.50;;;;;;5075207;28;20058;-65
2022/05/15 09:45:07;;;;;;;;;;;17.50;99.50;;;;;;5074755;28;20033;-68
2022/05/15 09:47:35;;;;;;;;;;;17.40;99.40;;;;;;5075051;28;20004;-68
2022/05/15 09:50:00;;;;;;;;;;;17.40;99.30;;;;;;5074935;28;19912;-68
2022/05/15 09:52:29;;;;;;;;;;;17.80;99.30;;;;;;5074237;28;19926;-69
2022/05/15 09:55:06;;;;;;;;;;;18.60;98.60;;;;;;5074849;28;19912;-68
2022/05/15 09:57:31;;;;;;;;;;;18.90;97.30;;;;;;5074289;28;19913;-68
2022/05/15 09:59:59;;;;;;;;;;;19.10;97.40;;;;;;5074035;28;20354;-68
2022/05/15 10:02:39;;;;;;;;;;;19.20;97.00;;;;;;5074165;28;20288;-68
2022/05/15 10:05:28;;;;;;;;;;;19.30;97.00;;;;;;5074624;28;19998;-68
2022/05/15 10:08:16;;;;;;;;;;;19.60;96.90;;;;;;5074429;28;19912;-68
2022/05/15 10:10:42;;;;;;;;;;;19.90;95.00;;;;;;5071412;28;19920;-68
2022/05/15 10:13:09;;;;;;;;;;;19.30;95.50;;;;;;5074398;28;19913;-68
2022/05/15 10:15:38;;;;;;;;;;;18.90;95.90;;;;;;5074391;28;19962;-68
2022/05/15 10:18:04;;;;;;;;;;;18.60;96.70;;;;;;5074258;28;20008;-68
2022/05/15 10:20:31;;;;;;;;;;;18.20;97.40;;;;;;5073973;28;19972;-68
2022/05/15 10:23:09;;;;;;;;;;;17.90;97.50;;;;;;5074544;28;20338;-68
2022/05/15 10:25:43;;;;;;;;;;;17.80;97.50;;;;;;5074003;28;19916;-69
2022/05/15 10:28:23;;;;;;;;;;;17.80;97.90;;;;;;5072580;28;20359;-68
2022/05/15 10:31:22;;;;;;;;;;;18.00;97.90;;;;;;5074158;28;19928;-69
2022/05/15 10:33:52;;;;;;;;;;;18.20;97.90;;;;;;5061639;28;19952;-69
2022/05/15 10:36:24;;;;;;;;;;;18.50;97.80;;;;;;5072394;28;20007;-69
2022/05/15 10:38:56;;;;;;;;;;;18.30;98.00;;;;;;5074018;28;19916;-69
2022/05/15 10:41:30;;;;;;;;;;;18.10;98.60;;;;;;5074123;28;20081;-69
2022/05/15 10:44:11;;;;;;;;;;;17.90;99.30;;;;;;5073567;28;19908;-68
2022/05/15 10:46:45;;;;;;;;;;;18.10;99.40;;;;;;5073976;28;20411;-68
2022/05/15 10:49:22;;;;;;;;;;;18.90;97.90;;;;;;5073593;28;19920;-69
2022/05/15 10:51:48;;;;;;;;;;;19.20;96.80;;;;;;5073598;28;19921;-67
2022/05/15 10:57:25;;;;;;;;;;;19.50;96.10;;;;;;5073304;28;19924;-68
2022/05/15 11:00:00;;;;;;;;;;;19.30;96.30;;;;;;5073747;28;19916;-68
2022/05/15 11:02:45;;;;;;;;;;;18.80;96.50;;;;;;5073251;28;19916;-69
2022/05/15 11:05:22;;;;;;;;;;;18.40;97.30;;;;;;5073371;28;19940;-73
2022/05/15 11:07:54;;;;;;;;;;;18.20;97.70;;;;;;5073225;28;19917;-67
2022/05/15 11:10:46;;;;;;;;;;;18.40;98.00;;;;;;5073511;28;20025;-67
2022/05/15 11:13:23;;;;;;;;;;;19.00;97.10;;;;;;5064171;28;19924;-69
2022/05/15 11:15:57;;;;;;;;;;;19.60;96.20;;;;;;5072944;28;19923;-67
2022/05/15 11:18:41;;;;;;;;;;;20.10;96.00;;;;;;5072738;28;19908;-67
2022/05/15 11:21:12;;;;;;;;;;;20.10;95.30;;;;;;5072569;28;20023;-68
2022/05/15 11:23:47;;;;;;;;;;;19.80;95.30;;;;;;5072798;28;19962;-66
2022/05/15 11:26:36;;;;;;;;;;;19.50;95.40;;;;;;5072087;28;19916;-67
2022/05/15 11:29:10;;;;;;;;;;;19.10;96.00;;;;;;5067116;28;19920;-68
2022/05/15 11:31:42;;;;;;;;;;;18.80;96.20;;;;;;5072433;28;19917;-66
2022/05/15 11:34:08;;;;;;;;;;;18.70;96.60;;;;;;5072738;28;19912;-67
2022/05/15 11:36:40;;;;;;;;;;;18.90;96.10;;;;;;5072889;28;20275;-67
2022/05/15 11:39:15;;;;;;;;;;;19.10;95.60;;;;;;5088119;28;19913;-67
2022/05/15 11:42:09;;;;;;;;;;;19.20;94.80;;;;;;5072435;28;19913;-67
2022/05/15 11:44:40;;;;;;;;;;;19.00;95.20;;;;;;5072573;28;20348;-68
2022/05/15 11:47:14;;;;;;;;;;;18.70;95.40;;;;;;5087422;28;19913;-66
2022/05/15 11:49:56;;;;;;;;;;;18.60;95.70;;;;;;5072429;28;20276;-66
2022/05/15 11:52:32;;;;;;;;;;;18.50;95.30;;;;;;5072108;28;20048;-66
2022/05/15 11:54:59;;;;;;;;;;;18.40;95.40;;;;;;5072425;28;19912;-66
2022/05/15 11:57:44;;;;;;;;;;;18.50;95.40;;;;;;5072218;28;20326;-67
2022/05/15 12:00:19;;;;;;;;;;;18.60;95.40;;;;;;5072062;28;19919;-67
2022/05/15 12:02:50;;;;;;;;;;;18.70;95.00;;;;;;5087490;28;19956;-67
2022/05/15 12:05:24;;;;;;;;;;;18.80;94.70;;;;;;5072198;28;19919;-67
2022/05/15 12:07:55;;;;;;;;;;;18.90;94.70;;;;;;5071880;28;19913;-66
2022/05/15 12:10:32;;;;;;;;;;;18.90;94.30;;;;;;5071583;28;19919;-67
2022/05/15 12:13:07;;;;;;;;;;;19.20;93.80;;;;;;5071678;28;19913;-68
2022/05/15 12:15:37;;;;;;;;;;;19.60;93.10;;;;;;5071800;28;20048;-68
2022/05/15 12:18:18;;;;;;;;;;;19.90;91.70;;;;;;5071806;28;19909;-67
2022/05/15 12:20:47;;;;;;;;;;;20.00;91.00;;;;;;5071763;28;20277;-67
2022/05/15 12:23:17;;;;;;;;;;;20.20;90.60;;;;;;5071528;28;19909;-68
2022/05/15 12:25:59;;;;;;;;;;;20.30;91.00;;;;;;5071969;28;20016;-68
2022/05/15 12:28:52;;;;;;;;;;;20.40;90.80;;;;;;5071646;28;19912;-68
2022/05/15 12:31:23;;;;;;;;;;;20.10;90.80;;;;;;5071819;28;19966;-68
2022/05/15 12:33:49;;;;;;;;;;;19.80;90.70;;;;;;5071631;28;20340;-68
2022/05/15 12:36:34;;;;;;;;;;;19.20;90.00;;;;;;5071456;28;19920;-68
2022/05/15 12:39:01;;;;;;;;;;;19.00;88.60;;;;;;5070592;28;20369;-68
2022/05/15 12:41:32;;;;;;;;;;;18.80;89.40;;;;;;5071641;28;19916;-69
2022/05/15 12:44:00;;;;;;;;;;;18.50;89.10;;;;;;5071346;28;19962;-68
2022/05/15 12:46:26;;;;;;;;;;;18.40;90.00;;;;;;5071146;28;19916;-68
2022/05/15 12:48:51;;;;;;;;;;;18.60;89.70;;;;;;5071522;28;20054;-67
2022/05/15 12:51:23;;;;;;;;;;;18.80;90.30;;;;;;5071223;28;19958;-70
2022/05/15 12:53:49;;;;;;;;;;;18.90;90.20;;;;;;5071174;28;19924;-69
2022/05/15 12:56:29;;;;;;;;;;;19.10;89.20;;;;;;5071352;28;19913;-66
2022/05/15 12:58:59;;;;;;;;;;;19.10;90.10;;;;;;5070622;28;20003;-68
2022/05/15 13:01:29;;;;;;;;;;;18.90;88.60;;;;;;5071359;28;20570;-68
2022/05/15 13:03:58;;;;;;;;;;;18.70;89.20;;;;;;5071101;28;19912;-66
2022/05/15 13:06:50;;;;;;;;;;;18.50;88.00;;;;;;5071399;28;20356;-67
2022/05/15 13:09:23;;;;;;;;;;;18.40;87.80;;;;;;5066522;28;19977;-66
2022/05/15 13:11:51;;;;;;;;;;;18.40;86.20;;;;;;5070965;28;19923;-67
2022/05/15 13:14:23;;;;;;;;;;;18.40;85.50;;;;;;5071198;28;19920;-68
2022/05/15 13:16:51;;;;;;;;;;;18.50;87.60;;;;;;5070115;28;19916;-67
2022/05/15 13:19:21;;;;;;;;;;;18.50;85.90;;;;;;5071408;28;19919;-67
2022/05/15 13:21:49;;;;;;;;;;;18.40;86.50;;;;;;5070687;28;19924;-67
2022/05/15 13:24:16;;;;;;;;;;;18.40;86.90;;;;;;5071130;28;19919;-67
2022/05/15 13:26:44;;;;;;;;;;;18.50;86.60;;;;;;5071194;28;19928;-66
2022/05/15 13:29:13;;;;;;;;;;;18.40;87.00;;;;;;5071091;28;19960;-67
2022/05/15 13:31:39;;;;;;;;;;;18.30;87.50;;;;;;5071107;28;19926;-66
2022/05/15 13:34:05;;;;;;;;;;;18.30;87.90;;;;;;5070891;28;19995;-66
2022/05/15 13:36:31;;;;;;;;;;;18.20;87.80;;;;;;5071179;28;20007;-67
2022/05/15 13:44:27;;;;;;;;;;;18.00;88.40;;;;;;5071267;28;19935;-67
2022/05/15 13:47:10;;;;;;;;;;;17.90;88.70;;;;;;5070682;28;19920;-67
2022/05/15 13:49:40;;;;;;;;;;;17.80;89.00;;;;;;5071093;28;19913;-66
2022/05/15 13:52:21;;;;;;;;;;;17.80;89.30;;;;;;5070489;28;19916;-67
2022/05/15 13:54:47;;;;;;;;;;;17.80;89.60;;;;;;5070635;28;19919;-71
2022/05/15 13:57:13;;;;;;;;;;;17.80;90.00;;;;;;5070852;28;20284;-70
2022/05/15 13:59:41;;;;;;;;;;;18.00;90.00;;;;;;5070837;28;19913;-70
2022/05/15 14:02:09;;;;;;;;;;;18.00;90.00;;;;;;5070678;28;19912;-71
2022/05/15 14:04:35;;;;;;;;;;;18.10;89.50;;;;;;5070811;28;20264;-71
2022/05/15 14:07:00;;;;;;;;;;;18.10;90.10;;;;;;5070529;28;19913;-71
2022/05/15 14:09:46;;;;;;;;;;;17.90;90.20;;;;;;5071354;28;19950;-71
2022/05/15 14:12:13;;;;;;;;;;;17.90;90.10;;;;;;5074031;28;19926;-71
2022/05/15 14:14:50;;;;;;;;;;;18.00;90.00;;;;;;5074185;28;19952;-71
2022/05/15 14:17:39;;;;;;;;;;;18.10;90.20;;;;;;5074318;28;20313;-71
2022/05/15 14:20:07;;;;;;;;;;;18.30;90.10;;;;;;5065792;28;19917;-70
2022/05/15 14:22:36;;;;;;;;;;;18.30;90.20;;;;;;5073960;28;19924;-71
2022/05/15 14:25:02;;;;;;;;;;;18.10;90.40;;;;;;5074198;28;20042;-71
2022/05/15 14:27:28;;;;;;;;;;;17.90;90.30;;;;;;5089582;28;20003;-71
2022/05/15 14:29:53;;;;;;;;;;;17.90;90.40;;;;;;5074206;28;19948;-71
2022/05/15 14:32:27;;;;;;;;;;;17.90;90.00;;;;;;5074109;28;19925;-71
2022/05/15 14:34:53;;;;;;;;;;;18.00;89.70;;;;;;5074106;28;19959;-71
2022/05/15 14:37:19;;;;;;;;;;;18.10;88.80;;;;;;5074088;28;20011;-71
2022/05/15 14:39:44;;;;;;;;;;;18.20;88.30;;;;;;5074057;28;20001;-71
2022/05/15 14:42:10;;;;;;;;;;;18.10;88.10;;;;;;5073644;28;20340;-71
2022/05/15 14:44:36;;;;;;;;;;;18.20;88.40;;;;;;5073659;28;19944;-71
2022/05/15 14:47:03;;;;;;;;;;;18.30;87.40;;;;;;5073510;28;19989;-71
2022/05/15 14:49:29;;;;;;;;;;;18.50;88.00;;;;;;5073282;28;20257;-71
2022/05/15 14:51:55;;;;;;;;;;;18.40;88.10;;;;;;5073399;28;19966;-71